sensor_id;sensor_type;location;lat;lon;timestamp;P1;durP1;ratioP1;P2;durP2;ratioP2
39788;SDS011;25478;42.626;23.320;2022-11-25T00:00:19;4.97;;;3.23;;
39788;SDS011;25478;42.626;23.320;2022-11-25T00:02:45;6.40;;;3.37;;
39788;SDS011;25478;42.626;23.320;2022-11-25T00:05:10;5.70;;;3.20;;
39788;SDS011;25478;42.626;23.320;2022-11-25T00:07:35;5.43;;;2.80;;
39788;SDS011;25478;42.626;23.320;2022-11-25T00:10:02;4.87;;;3.10;;
39788;SDS011;25478;42.626;23.320;2022-11-25T00:12:28;5.63;;;3.30;;
39788;SDS011;25478;42.626;23.320;2022-11-25T00:14:54;6.53;;;3.40;;
39788;SDS011;25478;42.626;23.320;2022-11-25T00:17:19;3.80;;;2.93;;
39788;SDS011;25478;42.626;23.320;2022-11-25T00:19:45;6.10;;;3.33;;
39788;SDS011;25478;42.626;23.320;2022-11-25T00:22:13;5.27;;;3.47;;
39788;SDS011;25478;42.626;23.320;2022-11-25T00:24:39;5.47;;;3.50;;
39788;SDS011;25478;42.626;23.320;2022-11-25T00:27:05;5.13;;;3.90;;
39788;SDS011;25478;42.626;23.320;2022-11-25T00:29:33;6.77;;;3.60;;
39788;SDS011;25478;42.626;23.320;2022-11-25T00:31:59;4.37;;;3.40;;
39788;SDS011;25478;42.626;23.320;2022-11-25T00:34:24;6.47;;;4.13;;
39788;SDS011;25478;42.626;23.320;2022-11-25T00:36:50;5.10;;;4.00;;
39788;SDS011;25478;42.626;23.320;2022-11-25T00:39:17;5.23;;;4.10;;
39788;SDS011;25478;42.626;23.320;2022-11-25T00:41:44;6.50;;;3.97;;
39788;SDS011;25478;42.626;23.320;2022-11-25T00:44:29;6.97;;;4.27;;
39788;SDS011;25478;42.626;23.320;2022-11-25T00:49:33;6.17;;;4.17;;
39788;SDS011;25478;42.626;23.320;2022-11-25T00:51:59;6.30;;;3.97;;
39788;SDS011;25478;42.626;23.320;2022-11-25T00:54:25;6.57;;;3.70;;
39788;SDS011;25478;42.626;23.320;2022-11-25T00:56:50;6.03;;;3.83;;
39788;SDS011;25478;42.626;23.320;2022-11-25T00:59:16;6.47;;;3.70;;
39788;SDS011;25478;42.626;23.320;2022-11-25T01:01:42;6.30;;;3.93;;
39788;SDS011;25478;42.626;23.320;2022-11-25T01:04:07;6.90;;;3.80;;
39788;SDS011;25478;42.626;23.320;2022-11-25T01:06:34;5.60;;;4.00;;
39788;SDS011;25478;42.626;23.320;2022-11-25T01:09:00;5.17;;;4.00;;
39788;SDS011;25478;42.626;23.320;2022-11-25T01:11:26;5.97;;;3.90;;
39788;SDS011;25478;42.626;23.320;2022-11-25T01:13:51;5.70;;;4.10;;
39788;SDS011;25478;42.626;23.320;2022-11-25T01:16:20;6.63;;;3.80;;
39788;SDS011;25478;42.626;23.320;2022-11-25T01:18:46;7.00;;;4.33;;
39788;SDS011;25478;42.626;23.320;2022-11-25T01:21:16;7.47;;;4.10;;
39788;SDS011;25478;42.626;23.320;2022-11-25T01:23:44;7.60;;;3.80;;
39788;SDS011;25478;42.626;23.320;2022-11-25T01:26:12;6.33;;;3.83;;
39788;SDS011;25478;42.626;23.320;2022-11-25T01:28:39;5.60;;;3.40;;
39788;SDS011;25478;42.626;23.320;2022-11-25T01:31:10;6.00;;;3.73;;
39788;SDS011;25478;42.626;23.320;2022-11-25T01:33:41;4.90;;;2.93;;
39788;SDS011;25478;42.626;23.320;2022-11-25T01:36:07;4.70;;;3.20;;
39788;SDS011;25478;42.626;23.320;2022-11-25T01:38:35;4.20;;;3.07;;
39788;SDS011;25478;42.626;23.320;2022-11-25T01:41:01;4.13;;;2.57;;
39788;SDS011;25478;42.626;23.320;2022-11-25T01:43:27;4.67;;;2.80;;
39788;SDS011;25478;42.626;23.320;2022-11-25T01:46:05;5.43;;;3.10;;
39788;SDS011;25478;42.626;23.320;2022-11-25T01:48:39;5.60;;;3.07;;
39788;SDS011;25478;42.626;23.320;2022-11-25T01:51:31;5.05;;;2.90;;
39788;SDS011;25478;42.626;23.320;2022-11-25T01:54:01;5.33;;;3.00;;
39788;SDS011;25478;42.626;23.320;2022-11-25T01:56:32;4.00;;;2.20;;
39788;SDS011;25478;42.626;23.320;2022-11-25T01:59:02;3.57;;;2.30;;
39788;SDS011;25478;42.626;23.320;2022-11-25T02:01:27;4.00;;;2.30;;
39788;SDS011;25478;42.626;23.320;2022-11-25T02:03:53;4.27;;;2.63;;
39788;SDS011;25478;42.626;23.320;2022-11-25T02:08:56;3.17;;;2.20;;
39788;SDS011;25478;42.626;23.320;2022-11-25T02:11:26;4.63;;;2.08;;
39788;SDS011;25478;42.626;23.320;2022-11-25T02:13:54;3.83;;;2.23;;
39788;SDS011;25478;42.626;23.320;2022-11-25T02:16:21;4.80;;;2.80;;
39788;SDS011;25478;42.626;23.320;2022-11-25T02:18:48;4.37;;;2.07;;
39788;SDS011;25478;42.626;23.320;2022-11-25T02:21:16;4.03;;;2.40;;
39788;SDS011;25478;42.626;23.320;2022-11-25T02:23:51;4.67;;;2.40;;
39788;SDS011;25478;42.626;23.320;2022-11-25T02:26:23;3.80;;;2.20;;
39788;SDS011;25478;42.626;23.320;2022-11-25T02:28:49;4.07;;;2.30;;
39788;SDS011;25478;42.626;23.320;2022-11-25T02:31:19;4.20;;;2.57;;
39788;SDS011;25478;42.626;23.320;2022-11-25T02:33:46;3.77;;;2.50;;
39788;SDS011;25478;42.626;23.320;2022-11-25T02:36:12;4.80;;;2.80;;
39788;SDS011;25478;42.626;23.320;2022-11-25T02:41:30;3.60;;;2.60;;
39788;SDS011;25478;42.626;23.320;2022-11-25T02:43:59;3.83;;;2.50;;
39788;SDS011;25478;42.626;23.320;2022-11-25T02:46:26;4.33;;;2.53;;
39788;SDS011;25478;42.626;23.320;2022-11-25T02:48:53;3.90;;;2.77;;
39788;SDS011;25478;42.626;23.320;2022-11-25T02:51:23;5.37;;;2.60;;
39788;SDS011;25478;42.626;23.320;2022-11-25T02:53:50;5.70;;;2.83;;
39788;SDS011;25478;42.626;23.320;2022-11-25T02:56:18;4.50;;;3.10;;
39788;SDS011;25478;42.626;23.320;2022-11-25T02:58:45;5.10;;;3.00;;
39788;SDS011;25478;42.626;23.320;2022-11-25T03:01:10;7.17;;;2.83;;
39788;SDS011;25478;42.626;23.320;2022-11-25T03:03:36;4.53;;;3.17;;
39788;SDS011;25478;42.626;23.320;2022-11-25T03:06:05;4.83;;;2.53;;
39788;SDS011;25478;42.626;23.320;2022-11-25T03:08:31;3.83;;;2.80;;
39788;SDS011;25478;42.626;23.320;2022-11-25T03:10:57;6.17;;;3.03;;
39788;SDS011;25478;42.626;23.320;2022-11-25T03:13:22;4.57;;;2.67;;
39788;SDS011;25478;42.626;23.320;2022-11-25T03:15:48;3.73;;;2.63;;
39788;SDS011;25478;42.626;23.320;2022-11-25T03:18:14;3.87;;;2.87;;
39788;SDS011;25478;42.626;23.320;2022-11-25T03:20:40;5.10;;;3.00;;
39788;SDS011;25478;42.626;23.320;2022-11-25T03:23:06;4.00;;;2.80;;
39788;SDS011;25478;42.626;23.320;2022-11-25T03:25:32;5.17;;;3.00;;
39788;SDS011;25478;42.626;23.320;2022-11-25T03:27:59;6.10;;;3.30;;
39788;SDS011;25478;42.626;23.320;2022-11-25T03:30:25;4.57;;;3.17;;
39788;SDS011;25478;42.626;23.320;2022-11-25T03:32:56;4.93;;;3.53;;
39788;SDS011;25478;42.626;23.320;2022-11-25T03:35:23;5.53;;;3.63;;
39788;SDS011;25478;42.626;23.320;2022-11-25T03:37:49;4.90;;;3.40;;
39788;SDS011;25478;42.626;23.320;2022-11-25T03:40:14;6.43;;;3.10;;
39788;SDS011;25478;42.626;23.320;2022-11-25T03:42:40;6.00;;;3.50;;
39788;SDS011;25478;42.626;23.320;2022-11-25T03:45:08;5.23;;;3.27;;
39788;SDS011;25478;42.626;23.320;2022-11-25T03:47:38;4.73;;;2.70;;
39788;SDS011;25478;42.626;23.320;2022-11-25T03:50:04;4.60;;;2.80;;
39788;SDS011;25478;42.626;23.320;2022-11-25T03:52:30;4.77;;;2.97;;
39788;SDS011;25478;42.626;23.320;2022-11-25T03:54:55;4.70;;;3.10;;
39788;SDS011;25478;42.626;23.320;2022-11-25T03:57:25;4.80;;;2.97;;
39788;SDS011;25478;42.626;23.320;2022-11-25T03:59:51;4.10;;;2.67;;
39788;SDS011;25478;42.626;23.320;2022-11-25T04:02:17;4.17;;;2.50;;
39788;SDS011;25478;42.626;23.320;2022-11-25T04:04:42;3.30;;;2.17;;
39788;SDS011;25478;42.626;23.320;2022-11-25T04:07:08;3.50;;;2.20;;
39788;SDS011;25478;42.626;23.320;2022-11-25T04:09:33;4.40;;;2.27;;
39788;SDS011;25478;42.626;23.320;2022-11-25T04:12:01;2.57;;;2.10;;
39788;SDS011;25478;42.626;23.320;2022-11-25T04:14:54;3.73;;;2.17;;
39788;SDS011;25478;42.626;23.320;2022-11-25T04:17:19;3.53;;;2.37;;
39788;SDS011;25478;42.626;23.320;2022-11-25T04:19:46;3.57;;;2.30;;
39788;SDS011;25478;42.626;23.320;2022-11-25T04:22:11;4.10;;;2.57;;
39788;SDS011;25478;42.626;23.320;2022-11-25T04:24:41;6.80;;;2.90;;
39788;SDS011;25478;42.626;23.320;2022-11-25T04:27:07;4.17;;;2.80;;
39788;SDS011;25478;42.626;23.320;2022-11-25T04:29:33;4.13;;;2.90;;
39788;SDS011;25478;42.626;23.320;2022-11-25T04:32:02;3.97;;;2.33;;
39788;SDS011;25478;42.626;23.320;2022-11-25T04:34:27;3.53;;;2.70;;
39788;SDS011;25478;42.626;23.320;2022-11-25T04:36:53;4.00;;;3.20;;
39788;SDS011;25478;42.626;23.320;2022-11-25T04:39:18;4.70;;;3.20;;
39788;SDS011;25478;42.626;23.320;2022-11-25T04:41:44;5.40;;;2.63;;
39788;SDS011;25478;42.626;23.320;2022-11-25T04:44:10;4.97;;;2.60;;
39788;SDS011;25478;42.626;23.320;2022-11-25T04:46:37;4.33;;;2.77;;
39788;SDS011;25478;42.626;23.320;2022-11-25T04:49:05;5.47;;;2.93;;
39788;SDS011;25478;42.626;23.320;2022-11-25T04:51:31;6.73;;;2.97;;
39788;SDS011;25478;42.626;23.320;2022-11-25T04:53:59;5.30;;;2.90;;
39788;SDS011;25478;42.626;23.320;2022-11-25T04:56:25;7.50;;;3.73;;
39788;SDS011;25478;42.626;23.320;2022-11-25T04:58:52;8.57;;;3.50;;
39788;SDS011;25478;42.626;23.320;2022-11-25T05:01:43;6.50;;;2.90;;
39788;SDS011;25478;42.626;23.320;2022-11-25T05:04:29;8.20;;;3.00;;
39788;SDS011;25478;42.626;23.320;2022-11-25T05:06:55;5.37;;;2.77;;
39788;SDS011;25478;42.626;23.320;2022-11-25T05:09:22;4.57;;;2.50;;
39788;SDS011;25478;42.626;23.320;2022-11-25T05:11:59;6.93;;;2.90;;
39788;SDS011;25478;42.626;23.320;2022-11-25T05:14:24;5.13;;;2.50;;
39788;SDS011;25478;42.626;23.320;2022-11-25T05:16:50;5.30;;;2.33;;
39788;SDS011;25478;42.626;23.320;2022-11-25T05:19:17;6.43;;;3.13;;
39788;SDS011;25478;42.626;23.320;2022-11-25T05:21:43;6.67;;;3.23;;
39788;SDS011;25478;42.626;23.320;2022-11-25T05:24:08;3.67;;;2.57;;
39788;SDS011;25478;42.626;23.320;2022-11-25T05:26:34;5.07;;;2.80;;
39788;SDS011;25478;42.626;23.320;2022-11-25T05:29:00;4.00;;;2.40;;
39788;SDS011;25478;42.626;23.320;2022-11-25T05:31:28;3.70;;;2.70;;
39788;SDS011;25478;42.626;23.320;2022-11-25T05:33:53;4.37;;;2.87;;
39788;SDS011;25478;42.626;23.320;2022-11-25T05:36:19;3.93;;;2.43;;
39788;SDS011;25478;42.626;23.320;2022-11-25T05:38:46;5.57;;;3.03;;
39788;SDS011;25478;42.626;23.320;2022-11-25T05:41:17;3.83;;;2.83;;
39788;SDS011;25478;42.626;23.320;2022-11-25T05:43:44;4.80;;;2.80;;
39788;SDS011;25478;42.626;23.320;2022-11-25T05:46:11;4.13;;;2.67;;
39788;SDS011;25478;42.626;23.320;2022-11-25T05:48:42;5.33;;;2.70;;
39788;SDS011;25478;42.626;23.320;2022-11-25T05:51:08;4.03;;;2.60;;
39788;SDS011;25478;42.626;23.320;2022-11-25T05:53:34;5.17;;;2.73;;
39788;SDS011;25478;42.626;23.320;2022-11-25T05:56:02;4.23;;;2.63;;
39788;SDS011;25478;42.626;23.320;2022-11-25T05:59:05;4.80;;;2.60;;
39788;SDS011;25478;42.626;23.320;2022-11-25T06:01:53;4.33;;;2.73;;
39788;SDS011;25478;42.626;23.320;2022-11-25T06:04:19;3.27;;;2.30;;
39788;SDS011;25478;42.626;23.320;2022-11-25T06:06:44;4.23;;;2.83;;
39788;SDS011;25478;42.626;23.320;2022-11-25T06:09:10;5.43;;;2.93;;
39788;SDS011;25478;42.626;23.320;2022-11-25T06:11:36;6.93;;;3.47;;
39788;SDS011;25478;42.626;23.320;2022-11-25T06:14:01;8.43;;;3.50;;
39788;SDS011;25478;42.626;23.320;2022-11-25T06:16:27;6.00;;;3.03;;
39788;SDS011;25478;42.626;23.320;2022-11-25T06:19:04;5.63;;;2.97;;
39788;SDS011;25478;42.626;23.320;2022-11-25T06:21:31;5.73;;;3.17;;
39788;SDS011;25478;42.626;23.320;2022-11-25T06:23:57;5.33;;;2.97;;
39788;SDS011;25478;42.626;23.320;2022-11-25T06:26:23;5.13;;;3.13;;
39788;SDS011;25478;42.626;23.320;2022-11-25T06:28:51;5.03;;;3.00;;
39788;SDS011;25478;42.626;23.320;2022-11-25T06:31:20;5.13;;;2.80;;
39788;SDS011;25478;42.626;23.320;2022-11-25T06:33:56;4.53;;;2.80;;
39788;SDS011;25478;42.626;23.320;2022-11-25T06:36:21;6.57;;;2.80;;
39788;SDS011;25478;42.626;23.320;2022-11-25T06:38:51;4.23;;;2.77;;
39788;SDS011;25478;42.626;23.320;2022-11-25T06:41:18;4.70;;;3.10;;
39788;SDS011;25478;42.626;23.320;2022-11-25T06:43:44;6.50;;;3.20;;
39788;SDS011;25478;42.626;23.320;2022-11-25T06:46:11;6.73;;;3.23;;
39788;SDS011;25478;42.626;23.320;2022-11-25T06:48:38;5.83;;;3.43;;
39788;SDS011;25478;42.626;23.320;2022-11-25T06:51:05;5.70;;;3.33;;
39788;SDS011;25478;42.626;23.320;2022-11-25T06:53:32;8.40;;;3.97;;
39788;SDS011;25478;42.626;23.320;2022-11-25T06:56:15;5.40;;;4.30;;
39788;SDS011;25478;42.626;23.320;2022-11-25T06:58:43;5.47;;;3.50;;
39788;SDS011;25478;42.626;23.320;2022-11-25T07:01:14;6.20;;;3.83;;
39788;SDS011;25478;42.626;23.320;2022-11-25T07:03:44;6.63;;;3.60;;
39788;SDS011;25478;42.626;23.320;2022-11-25T07:06:12;6.10;;;3.60;;
39788;SDS011;25478;42.626;23.320;2022-11-25T07:08:40;5.20;;;3.37;;
39788;SDS011;25478;42.626;23.320;2022-11-25T07:11:48;4.83;;;3.00;;
39788;SDS011;25478;42.626;23.320;2022-11-25T07:13:57;6.23;;;3.30;;
39788;SDS011;25478;42.626;23.320;2022-11-25T07:16:24;5.83;;;3.37;;
39788;SDS011;25478;42.626;23.320;2022-11-25T07:18:50;5.00;;;3.10;;
39788;SDS011;25478;42.626;23.320;2022-11-25T07:21:17;5.17;;;3.30;;
39788;SDS011;25478;42.626;23.320;2022-11-25T07:23:44;5.47;;;2.93;;
39788;SDS011;25478;42.626;23.320;2022-11-25T07:28:38;5.17;;;3.60;;
39788;SDS011;25478;42.626;23.320;2022-11-25T07:31:05;6.80;;;3.53;;
39788;SDS011;25478;42.626;23.320;2022-11-25T07:33:30;4.43;;;3.07;;
39788;SDS011;25478;42.626;23.320;2022-11-25T07:35:59;4.27;;;3.03;;
39788;SDS011;25478;42.626;23.320;2022-11-25T07:38:26;5.17;;;3.20;;
39788;SDS011;25478;42.626;23.320;2022-11-25T07:40:52;4.93;;;3.23;;
39788;SDS011;25478;42.626;23.320;2022-11-25T07:43:17;5.50;;;3.33;;
39788;SDS011;25478;42.626;23.320;2022-11-25T07:45:43;4.73;;;3.23;;
39788;SDS011;25478;42.626;23.320;2022-11-25T07:48:09;5.10;;;3.40;;
39788;SDS011;25478;42.626;23.320;2022-11-25T07:50:34;4.40;;;3.23;;
39788;SDS011;25478;42.626;23.320;2022-11-25T07:53:00;5.80;;;3.60;;
39788;SDS011;25478;42.626;23.320;2022-11-25T07:55:25;5.57;;;3.40;;
39788;SDS011;25478;42.626;23.320;2022-11-25T07:57:51;4.90;;;3.63;;
39788;SDS011;25478;42.626;23.320;2022-11-25T08:00:16;5.37;;;3.90;;
39788;SDS011;25478;42.626;23.320;2022-11-25T08:02:42;7.37;;;4.07;;
39788;SDS011;25478;42.626;23.320;2022-11-25T08:05:08;7.03;;;4.00;;
39788;SDS011;25478;42.626;23.320;2022-11-25T08:07:34;6.00;;;3.57;;
39788;SDS011;25478;42.626;23.320;2022-11-25T08:10:00;8.07;;;4.50;;
39788;SDS011;25478;42.626;23.320;2022-11-25T08:12:26;6.17;;;4.07;;
39788;SDS011;25478;42.626;23.320;2022-11-25T08:14:51;5.47;;;4.13;;
39788;SDS011;25478;42.626;23.320;2022-11-25T08:17:17;6.57;;;3.67;;
39788;SDS011;25478;42.626;23.320;2022-11-25T08:19:42;9.03;;;4.33;;
39788;SDS011;25478;42.626;23.320;2022-11-25T08:22:08;7.00;;;4.50;;
39788;SDS011;25478;42.626;23.320;2022-11-25T08:24:33;8.63;;;4.70;;
39788;SDS011;25478;42.626;23.320;2022-11-25T08:26:59;9.13;;;5.40;;
39788;SDS011;25478;42.626;23.320;2022-11-25T08:29:26;6.57;;;4.30;;
39788;SDS011;25478;42.626;23.320;2022-11-25T08:31:51;5.80;;;3.80;;
39788;SDS011;25478;42.626;23.320;2022-11-25T08:34:18;6.67;;;4.40;;
39788;SDS011;25478;42.626;23.320;2022-11-25T08:36:47;8.67;;;4.40;;
39788;SDS011;25478;42.626;23.320;2022-11-25T08:39:13;6.67;;;4.33;;
39788;SDS011;25478;42.626;23.320;2022-11-25T08:41:38;7.53;;;4.43;;
39788;SDS011;25478;42.626;23.320;2022-11-25T08:44:05;5.67;;;4.07;;
39788;SDS011;25478;42.626;23.320;2022-11-25T08:46:32;7.20;;;4.17;;
39788;SDS011;25478;42.626;23.320;2022-11-25T08:49:00;6.23;;;4.33;;
39788;SDS011;25478;42.626;23.320;2022-11-25T08:51:28;8.63;;;4.17;;
39788;SDS011;25478;42.626;23.320;2022-11-25T08:53:55;4.93;;;3.73;;
39788;SDS011;25478;42.626;23.320;2022-11-25T08:56:22;6.47;;;4.33;;
39788;SDS011;25478;42.626;23.320;2022-11-25T08:58:48;6.53;;;4.27;;
39788;SDS011;25478;42.626;23.320;2022-11-25T09:01:14;5.80;;;4.00;;
39788;SDS011;25478;42.626;23.320;2022-11-25T09:03:42;6.53;;;4.40;;
39788;SDS011;25478;42.626;23.320;2022-11-25T09:06:09;6.30;;;4.03;;
39788;SDS011;25478;42.626;23.320;2022-11-25T09:08:36;7.57;;;4.80;;
39788;SDS011;25478;42.626;23.320;2022-11-25T09:11:03;6.50;;;4.13;;
39788;SDS011;25478;42.626;23.320;2022-11-25T09:13:29;5.30;;;4.10;;
39788;SDS011;25478;42.626;23.320;2022-11-25T09:15:55;5.37;;;4.03;;
39788;SDS011;25478;42.626;23.320;2022-11-25T09:18:21;6.47;;;4.23;;
39788;SDS011;25478;42.626;23.320;2022-11-25T09:20:50;6.40;;;4.50;;
39788;SDS011;25478;42.626;23.320;2022-11-25T09:23:17;6.83;;;4.37;;
39788;SDS011;25478;42.626;23.320;2022-11-25T09:25:50;14.33;;;4.90;;
39788;SDS011;25478;42.626;23.320;2022-11-25T09:28:17;7.33;;;4.07;;
39788;SDS011;25478;42.626;23.320;2022-11-25T09:30:43;6.33;;;4.40;;
39788;SDS011;25478;42.626;23.320;2022-11-25T09:33:09;6.00;;;3.87;;
39788;SDS011;25478;42.626;23.320;2022-11-25T09:35:35;7.83;;;4.37;;
39788;SDS011;25478;42.626;23.320;2022-11-25T09:38:00;9.07;;;4.03;;
39788;SDS011;25478;42.626;23.320;2022-11-25T09:40:33;6.60;;;3.90;;
39788;SDS011;25478;42.626;23.320;2022-11-25T09:54:38;7.33;;;4.10;;
39788;SDS011;25478;42.626;23.320;2022-11-25T10:00:15;6.77;;;4.30;;
39788;SDS011;25478;42.626;23.320;2022-11-25T10:05:38;6.37;;;4.03;;
39788;SDS011;25478;42.626;23.320;2022-11-25T10:08:25;7.97;;;4.73;;
39788;SDS011;25478;42.626;23.320;2022-11-25T10:11:01;6.50;;;3.90;;
39788;SDS011;25478;42.626;23.320;2022-11-25T10:16:29;6.90;;;3.70;;
39788;SDS011;25478;42.626;23.320;2022-11-25T10:19:05;7.63;;;4.17;;
39788;SDS011;25478;42.626;23.320;2022-11-25T10:21:39;4.90;;;3.40;;
39788;SDS011;25478;42.626;23.320;2022-11-25T10:24:08;7.43;;;4.07;;
39788;SDS011;25478;42.626;23.320;2022-11-25T10:26:45;5.63;;;3.33;;
39788;SDS011;25478;42.626;23.320;2022-11-25T10:29:19;6.10;;;3.13;;
39788;SDS011;25478;42.626;23.320;2022-11-25T10:31:48;5.87;;;3.50;;
39788;SDS011;25478;42.626;23.320;2022-11-25T10:37:05;6.03;;;3.23;;
39788;SDS011;25478;42.626;23.320;2022-11-25T10:39:38;8.48;;;3.97;;
39788;SDS011;25478;42.626;23.320;2022-11-25T10:42:05;5.37;;;3.07;;
39788;SDS011;25478;42.626;23.320;2022-11-25T10:44:50;6.60;;;3.30;;
39788;SDS011;25478;42.626;23.320;2022-11-25T10:50:22;5.57;;;3.00;;
39788;SDS011;25478;42.626;23.320;2022-11-25T10:53:04;7.63;;;3.20;;
39788;SDS011;25478;42.626;23.320;2022-11-25T10:55:37;5.80;;;3.20;;
39788;SDS011;25478;42.626;23.320;2022-11-25T11:00:50;7.23;;;3.63;;
39788;SDS011;25478;42.626;23.320;2022-11-25T11:03:26;5.87;;;3.53;;
39788;SDS011;25478;42.626;23.320;2022-11-25T11:05:52;5.00;;;2.93;;
39788;SDS011;25478;42.626;23.320;2022-11-25T11:08:26;5.30;;;3.10;;
39788;SDS011;25478;42.626;23.320;2022-11-25T11:13:36;5.38;;;3.53;;
39788;SDS011;25478;42.626;23.320;2022-11-25T11:16:03;6.90;;;3.80;;
39788;SDS011;25478;42.626;23.320;2022-11-25T11:18:29;5.53;;;3.57;;
39788;SDS011;25478;42.626;23.320;2022-11-25T11:21:06;3.70;;;3.00;;
39788;SDS011;25478;42.626;23.320;2022-11-25T11:23:46;4.67;;;3.53;;
39788;SDS011;25478;42.626;23.320;2022-11-25T11:26:24;5.43;;;3.50;;
39788;SDS011;25478;42.626;23.320;2022-11-25T11:29:03;5.67;;;3.50;;
39788;SDS011;25478;42.626;23.320;2022-11-25T11:31:31;5.50;;;3.40;;
39788;SDS011;25478;42.626;23.320;2022-11-25T11:46:08;7.97;;;5.05;;
39788;SDS011;25478;42.626;23.320;2022-11-25T11:53:51;8.00;;;4.17;;
39788;SDS011;25478;42.626;23.320;2022-11-25T11:59:48;7.33;;;4.73;;
39788;SDS011;25478;42.626;23.320;2022-11-25T12:02:29;7.00;;;5.03;;
39788;SDS011;25478;42.626;23.320;2022-11-25T12:12:39;7.97;;;5.17;;
39788;SDS011;25478;42.626;23.320;2022-11-25T12:15:15;8.30;;;4.70;;
39788;SDS011;25478;42.626;23.320;2022-11-25T12:17:47;8.13;;;4.43;;
39788;SDS011;25478;42.626;23.320;2022-11-25T12:23:00;8.50;;;4.43;;
39788;SDS011;25478;42.626;23.320;2022-11-25T12:25:33;9.53;;;4.10;;
39788;SDS011;25478;42.626;23.320;2022-11-25T12:33:34;7.77;;;4.40;;
39788;SDS011;25478;42.626;23.320;2022-11-25T12:38:47;8.87;;;4.73;;
39788;SDS011;25478;42.626;23.320;2022-11-25T12:41:22;5.33;;;3.60;;
39788;SDS011;25478;42.626;23.320;2022-11-25T12:44:03;6.43;;;4.27;;
39788;SDS011;25478;42.626;23.320;2022-11-25T12:54:55;6.53;;;4.10;;
39788;SDS011;25478;42.626;23.320;2022-11-25T13:16:25;9.20;;;5.90;;
39788;SDS011;25478;42.626;23.320;2022-11-25T13:18:52;7.73;;;5.10;;
39788;SDS011;25478;42.626;23.320;2022-11-25T13:21:19;8.23;;;5.03;;
39788;SDS011;25478;42.626;23.320;2022-11-25T13:23:54;9.27;;;4.87;;
39788;SDS011;25478;42.626;23.320;2022-11-25T13:28:57;9.93;;;5.63;;
39788;SDS011;25478;42.626;23.320;2022-11-25T13:31:59;7.97;;;4.53;;
39788;SDS011;25478;42.626;23.320;2022-11-25T13:36:59;9.33;;;5.13;;
39788;SDS011;25478;42.626;23.320;2022-11-25T13:39:30;8.57;;;5.67;;
39788;SDS011;25478;42.626;23.320;2022-11-25T13:42:19;9.13;;;5.60;;
39788;SDS011;25478;42.626;23.320;2022-11-25T13:44:52;8.53;;;5.77;;
39788;SDS011;25478;42.626;23.320;2022-11-25T13:47:27;9.43;;;5.70;;
39788;SDS011;25478;42.626;23.320;2022-11-25T13:52:41;10.67;;;5.80;;
39788;SDS011;25478;42.626;23.320;2022-11-25T13:57:48;9.23;;;4.80;;
39788;SDS011;25478;42.626;23.320;2022-11-25T14:11:30;7.07;;;4.50;;
39788;SDS011;25478;42.626;23.320;2022-11-25T14:27:57;7.50;;;4.43;;
39788;SDS011;25478;42.626;23.320;2022-11-25T14:30:32;6.83;;;5.33;;
39788;SDS011;25478;42.626;23.320;2022-11-25T14:33:04;8.13;;;5.20;;
39788;SDS011;25478;42.626;23.320;2022-11-25T14:35:39;7.53;;;4.80;;
39788;SDS011;25478;42.626;23.320;2022-11-25T14:38:10;7.23;;;4.33;;
39788;SDS011;25478;42.626;23.320;2022-11-25T14:40:47;9.10;;;5.53;;
39788;SDS011;25478;42.626;23.320;2022-11-25T14:43:21;8.97;;;5.20;;
39788;SDS011;25478;42.626;23.320;2022-11-25T14:46:07;7.97;;;4.97;;
39788;SDS011;25478;42.626;23.320;2022-11-25T14:48:34;7.67;;;4.60;;
39788;SDS011;25478;42.626;23.320;2022-11-25T14:51:02;7.67;;;4.90;;
39788;SDS011;25478;42.626;23.320;2022-11-25T14:53:35;9.03;;;5.27;;
39788;SDS011;25478;42.626;23.320;2022-11-25T14:56:04;13.40;;;7.07;;
39788;SDS011;25478;42.626;23.320;2022-11-25T14:58:30;8.30;;;5.43;;
39788;SDS011;25478;42.626;23.320;2022-11-25T15:03:21;7.30;;;5.27;;
39788;SDS011;25478;42.626;23.320;2022-11-25T15:05:52;7.57;;;4.87;;
39788;SDS011;25478;42.626;23.320;2022-11-25T15:08:22;9.20;;;5.10;;
39788;SDS011;25478;42.626;23.320;2022-11-25T15:10:53;7.03;;;5.07;;
39788;SDS011;25478;42.626;23.320;2022-11-25T15:13:37;8.13;;;4.90;;
39788;SDS011;25478;42.626;23.320;2022-11-25T15:18:49;8.23;;;5.47;;
39788;SDS011;25478;42.626;23.320;2022-11-25T15:21:18;8.03;;;5.10;;
39788;SDS011;25478;42.626;23.320;2022-11-25T15:23:47;9.13;;;5.60;;
39788;SDS011;25478;42.626;23.320;2022-11-25T15:26:16;8.60;;;4.73;;
39788;SDS011;25478;42.626;23.320;2022-11-25T15:28:44;9.80;;;5.00;;
39788;SDS011;25478;42.626;23.320;2022-11-25T15:31:10;11.10;;;7.10;;
39788;SDS011;25478;42.626;23.320;2022-11-25T15:33:41;8.77;;;5.77;;
39788;SDS011;25478;42.626;23.320;2022-11-25T15:36:07;8.70;;;5.00;;
39788;SDS011;25478;42.626;23.320;2022-11-25T15:41:24;11.10;;;5.40;;
39788;SDS011;25478;42.626;23.320;2022-11-25T15:43:51;8.50;;;5.77;;
39788;SDS011;25478;42.626;23.320;2022-11-25T15:46:19;10.53;;;5.33;;
39788;SDS011;25478;42.626;23.320;2022-11-25T15:48:47;8.73;;;5.03;;
39788;SDS011;25478;42.626;23.320;2022-11-25T15:54:00;9.77;;;6.10;;
39788;SDS011;25478;42.626;23.320;2022-11-25T15:56:27;10.03;;;6.50;;
39788;SDS011;25478;42.626;23.320;2022-11-25T15:58:53;9.00;;;5.90;;
39788;SDS011;25478;42.626;23.320;2022-11-25T16:01:20;9.97;;;6.20;;
39788;SDS011;25478;42.626;23.320;2022-11-25T16:03:47;11.90;;;6.07;;
39788;SDS011;25478;42.626;23.320;2022-11-25T16:08:51;8.13;;;4.87;;
39788;SDS011;25478;42.626;23.320;2022-11-25T16:11:20;8.10;;;5.03;;
39788;SDS011;25478;42.626;23.320;2022-11-25T16:13:50;8.70;;;5.13;;
39788;SDS011;25478;42.626;23.320;2022-11-25T16:24:09;12.10;;;6.13;;
39788;SDS011;25478;42.626;23.320;2022-11-25T16:29:21;7.77;;;4.50;;
39788;SDS011;25478;42.626;23.320;2022-11-25T16:31:52;6.07;;;4.33;;
39788;SDS011;25478;42.626;23.320;2022-11-25T16:34:18;10.80;;;4.40;;
39788;SDS011;25478;42.626;23.320;2022-11-25T16:36:45;6.67;;;4.17;;
39788;SDS011;25478;42.626;23.320;2022-11-25T16:39:10;6.73;;;4.10;;
39788;SDS011;25478;42.626;23.320;2022-11-25T16:41:36;7.33;;;4.27;;
39788;SDS011;25478;42.626;23.320;2022-11-25T16:44:15;7.03;;;4.93;;
39788;SDS011;25478;42.626;23.320;2022-11-25T16:46:43;6.33;;;4.10;;
39788;SDS011;25478;42.626;23.320;2022-11-25T16:49:13;6.10;;;4.13;;
39788;SDS011;25478;42.626;23.320;2022-11-25T16:51:39;8.17;;;4.80;;
39788;SDS011;25478;42.626;23.320;2022-11-25T16:54:05;7.83;;;4.30;;
39788;SDS011;25478;42.626;23.320;2022-11-25T16:56:32;7.67;;;4.47;;
39788;SDS011;25478;42.626;23.320;2022-11-25T16:58:59;7.67;;;4.87;;
39788;SDS011;25478;42.626;23.320;2022-11-25T17:01:26;5.93;;;4.43;;
39788;SDS011;25478;42.626;23.320;2022-11-25T17:03:53;6.07;;;3.70;;
39788;SDS011;25478;42.626;23.320;2022-11-25T17:06:20;5.30;;;3.63;;
39788;SDS011;25478;42.626;23.320;2022-11-25T17:08:48;6.57;;;3.90;;
39788;SDS011;25478;42.626;23.320;2022-11-25T17:11:15;6.97;;;3.50;;
39788;SDS011;25478;42.626;23.320;2022-11-25T17:14:21;5.90;;;3.67;;
39788;SDS011;25478;42.626;23.320;2022-11-25T17:16:49;7.07;;;3.47;;
39788;SDS011;25478;42.626;23.320;2022-11-25T17:19:15;5.50;;;3.30;;
39788;SDS011;25478;42.626;23.320;2022-11-25T17:21:42;5.20;;;3.30;;
39788;SDS011;25478;42.626;23.320;2022-11-25T17:24:12;8.80;;;4.50;;
39788;SDS011;25478;42.626;23.320;2022-11-25T17:26:41;11.33;;;4.33;;
39788;SDS011;25478;42.626;23.320;2022-11-25T17:29:11;5.43;;;3.80;;
39788;SDS011;25478;42.626;23.320;2022-11-25T17:31:40;6.33;;;3.60;;